Time;durP1;ratioP1;P1;durP2;ratioP2;P2;SDS_P1;SDS_P2;PMS_P1;PMS_P2;Temp;Humidity;BMP_temperature;BMP_pressure;BME280_temperature;BME280_humidity;BME280_pressure;Samples;Min_cycle;Max_cycle;Signal;HPM_P1;HPM_P2
2022/06/30 00:01:34;;;;;;;;;;;;;;;29.22;42.04;93975.00;5027707;28;7630;-62
2022/06/30 00:04:00;;;;;;;;;;;;;;;29.23;42.16;93978.53;5037093;28;7054;-63
2022/06/30 00:06:29;;;;;;;;;;;;;;;29.21;41.68;93973.50;5011438;28;8003;-62
2022/06/30 00:08:55;;;;;;;;;;;;;;;29.23;42.69;93972.97;5013012;28;7050;-62
2022/06/30 00:11:21;;;;;;;;;;;;;;;29.22;41.85;93979.81;5021381;28;6994;-62
2022/06/30 00:13:47;;;;;;;;;;;;;;;29.22;42.15;93982.56;5008443;28;7228;-62
2022/06/30 00:16:14;;;;;;;;;;;;;;;29.21;42.71;93976.28;5023838;28;6996;-62
2022/06/30 00:18:42;;;;;;;;;;;;;;;29.20;42.44;93977.59;5009720;28;7732;-62
2022/06/30 00:21:09;;;;;;;;;;;;;;;29.19;42.44;93976.09;5017582;28;7213;-62
2022/06/30 00:23:41;;;;;;;;;;;;;;;29.19;42.44;93983.69;5010035;28;6942;-62
2022/06/30 00:26:08;;;;;;;;;;;;;;;29.20;42.09;93982.38;5027088;28;7001;-62
2022/06/30 00:28:36;;;;;;;;;;;;;;;29.20;41.91;93985.13;5014851;28;7092;-62
2022/06/30 00:31:02;;;;;;;;;;;;;;;29.18;42.22;93982.94;5031978;28;9574;-62
2022/06/30 00:33:28;;;;;;;;;;;;;;;29.16;41.92;93979.97;5021326;28;7250;-62
2022/06/30 00:35:54;;;;;;;;;;;;;;;29.13;42.37;93975.47;5023554;28;7089;-62
2022/06/30 00:38:20;;;;;;;;;;;;;;;29.12;42.41;93976.03;5017511;28;7703;-62
2022/06/30 00:40:46;;;;;;;;;;;;;;;29.11;42.62;93972.50;5009072;28;7218;-62
2022/06/30 00:43:13;;;;;;;;;;;;;;;29.15;42.21;93974.91;5036458;28;7221;-62
2022/06/30 00:45:43;;;;;;;;;;;;;;;29.17;42.12;93975.16;5024594;28;6894;-62
2022/06/30 00:48:14;;;;;;;;;;;;;;;29.17;42.27;93972.41;5014778;28;7142;-62
2022/06/30 00:50:40;;;;;;;;;;;;;;;29.16;42.29;93977.19;5020851;28;7012;-62
2022/06/30 00:53:08;;;;;;;;;;;;;;;29.15;42.39;93974.91;5028163;28;7042;-62
2022/06/30 00:55:35;;;;;;;;;;;;;;;29.16;42.33;93971.66;5027788;28;8986;-62
2022/06/30 00:58:07;;;;;;;;;;;;;;;29.16;42.46;93973.66;5018840;28;7068;-62
2022/06/30 01:00:39;;;;;;;;;;;;;;;29.12;41.84;93973.25;5019982;28;9123;-62
2022/06/30 01:03:09;;;;;;;;;;;;;;;29.10;42.58;93973.81;5009101;28;9105;-62
2022/06/30 01:05:45;;;;;;;;;;;;;;;29.04;42.13;93973.94;5024451;28;7192;-62
2022/06/30 01:08:16;;;;;;;;;;;;;;;29.04;42.52;93975.97;5015401;28;8905;-63
2022/06/30 01:13:48;;;;;;;;;;;;;;;29.01;42.31;93972.25;5021304;28;9125;-62
2022/06/30 01:16:28;;;;;;;;;;;;;;;28.99;42.54;93969.28;5022254;28;7006;-62
2022/06/30 01:19:02;;;;;;;;;;;;;;;29.02;42.63;93973.00;5029682;28;7203;-61
2022/06/30 01:22:05;;;;;;;;;;;;;;;29.00;42.67;93959.69;5008454;28;9167;-62
2022/06/30 01:24:33;;;;;;;;;;;;;;;29.01;42.64;93971.53;4980552;28;8240;-62
2022/06/30 01:26:59;;;;;;;;;;;;;;;29.00;42.11;93965.25;4973979;28;7104;-62
2022/06/30 01:29:35;;;;;;;;;;;;;;;28.98;42.57;93970.59;4967159;28;7144;-62
2022/06/30 01:32:01;;;;;;;;;;;;;;;29.00;42.43;93965.25;4986950;28;7231;-62
2022/06/30 01:34:39;;;;;;;;;;;;;;;28.99;42.37;93965.78;4973743;28;9066;-62
2022/06/30 01:37:05;;;;;;;;;;;;;;;28.98;42.07;93970.59;4972065;28;8702;-62
2022/06/30 01:39:35;;;;;;;;;;;;;;;28.98;42.54;93961.53;4965106;28;8963;-62
2022/06/30 01:42:20;;;;;;;;;;;;;;;28.98;42.35;93973.34;4967040;28;7172;-62
2022/06/30 01:44:56;;;;;;;;;;;;;;;28.96;42.71;93962.06;4989939;28;7155;-62
2022/06/30 01:47:23;;;;;;;;;;;;;;;28.94;42.35;93956.34;4962702;28;7618;-62
2022/06/30 01:49:57;;;;;;;;;;;;;;;28.94;42.71;93959.13;4973139;28;9466;-62
2022/06/30 01:52:23;;;;;;;;;;;;;;;28.93;42.57;93957.63;4989891;28;7194;-62
2022/06/30 01:54:51;;;;;;;;;;;;;;;28.95;42.50;93960.59;4970375;28;7097;-62
2022/06/30 01:57:17;;;;;;;;;;;;;;;28.94;42.50;93953.56;4985471;28;7399;-62
2022/06/30 01:59:43;;;;;;;;;;;;;;;28.94;42.28;93950.06;5013425;28;7219;-62
2022/06/30 02:02:22;;;;;;;;;;;;;;;28.94;42.18;93936.97;5027519;28;9087;-62
2022/06/30 02:04:50;;;;;;;;;;;;;;;28.93;42.63;93937.50;5013545;28;8456;-62
2022/06/30 02:07:21;;;;;;;;;;;;;;;28.92;42.72;93936.78;5027503;28;7949;-62
2022/06/30 02:09:51;;;;;;;;;;;;;;;28.92;42.18;93942.31;5017026;28;7146;-62
2022/06/30 02:15:06;;;;;;;;;;;;;;;28.91;42.46;93945.59;5013268;28;9160;-62
2022/06/30 02:17:32;;;;;;;;;;;;;;;28.91;42.62;93938.03;5012356;28;6936;-62
2022/06/30 02:20:00;;;;;;;;;;;;;;;28.91;42.66;93942.81;5019734;28;7201;-62
2022/06/30 02:22:27;;;;;;;;;;;;;;;28.90;42.98;93944.88;5028368;28;7059;-62
2022/06/30 02:24:56;;;;;;;;;;;;;;;28.90;42.68;93938.59;5020817;28;6998;-62
2022/06/30 02:27:24;;;;;;;;;;;;;;;28.90;42.43;93941.34;5030644;28;7150;-62
2022/06/30 02:29:52;;;;;;;;;;;;;;;28.89;42.47;93942.63;5021106;28;9263;-62
2022/06/30 02:32:20;;;;;;;;;;;;;;;28.87;41.86;93937.66;5016936;28;7008;-62
2022/06/30 02:34:46;;;;;;;;;;;;;;;28.86;41.64;93927.84;5033866;28;7715;-62
2022/06/30 02:37:15;;;;;;;;;;;;;;;28.86;42.27;93938.91;5024204;28;8442;-62
2022/06/30 02:39:42;;;;;;;;;;;;;;;28.86;42.16;93935.44;5010419;28;6991;-61
2022/06/30 02:42:14;;;;;;;;;;;;;;;28.83;42.42;93937.25;5018318;28;8872;-62
2022/06/30 02:44:40;;;;;;;;;;;;;;;28.84;42.74;93935.25;5009289;28;7123;-62
2022/06/30 02:47:06;;;;;;;;;;;;;;;28.85;42.85;93931.91;5019258;28;7245;-62
2022/06/30 02:49:31;;;;;;;;;;;;;;;28.85;42.19;93931.91;5007210;28;8505;-62
2022/06/30 02:52:00;;;;;;;;;;;;;;;28.84;42.42;93930.41;5022329;28;7110;-62
2022/06/30 02:54:28;;;;;;;;;;;;;;;28.85;42.31;93920.84;5023548;28;9200;-62
2022/06/30 02:56:54;;;;;;;;;;;;;;;28.86;42.57;93927.13;5015436;28;8646;-62
2022/06/30 02:59:20;;;;;;;;;;;;;;;28.84;42.58;93915.84;5019921;28;8759;-62
2022/06/30 03:01:46;;;;;;;;;;;;;;;28.84;41.94;93910.31;5019600;28;7383;-62
2022/06/30 03:04:12;;;;;;;;;;;;;;;28.84;42.38;93902.75;5009894;28;6965;-62
2022/06/30 03:06:40;;;;;;;;;;;;;;;28.83;42.28;93895.72;5019657;28;7077;-62
2022/06/30 03:09:38;;;;;;;;;;;;;;;28.84;42.13;93902.75;5011190;28;7305;-62
2022/06/30 03:12:20;;;;;;;;;;;;;;;28.83;42.17;93903.28;4965136;28;7169;-62
2022/06/30 03:14:47;;;;;;;;;;;;;;;28.83;42.27;93898.50;4967203;28;7207;-62
2022/06/30 03:17:29;;;;;;;;;;;;;;;28.81;41.98;93903.84;4989100;28;7353;-63
2022/06/30 03:20:11;;;;;;;;;;;;;;;28.82;42.32;93907.31;4970191;28;7323;-62
2022/06/30 03:22:37;;;;;;;;;;;;;;;28.79;42.13;93911.94;4989029;28;7884;-62
2022/06/30 03:25:05;;;;;;;;;;;;;;;28.80;42.29;93918.22;4971149;28;9054;-62
2022/06/30 03:27:34;;;;;;;;;;;;;;;28.79;42.16;93911.19;4976248;28;7670;-62
2022/06/30 03:30:04;;;;;;;;;;;;;;;28.80;42.00;93918.94;4966797;28;9163;-62
2022/06/30 03:32:33;;;;;;;;;;;;;;;28.81;41.83;93919.69;4974107;28;7464;-64
2022/06/30 03:34:59;;;;;;;;;;;;;;;28.80;42.36;93913.41;4964220;28;7163;-62
2022/06/30 03:37:25;;;;;;;;;;;;;;;28.81;42.07;93903.84;4978809;28;9538;-62
2022/06/30 03:40:03;;;;;;;;;;;;;;;28.80;42.13;93907.88;4985560;28;9059;-62
2022/06/30 03:42:34;;;;;;;;;;;;;;;28.81;42.18;93903.09;4964576;28;9411;-62
2022/06/30 03:45:10;;;;;;;;;;;;;;;28.80;41.90;93896.06;4973978;28;8344;-62
2022/06/30 03:48:16;;;;;;;;;;;;;;;28.79;42.35;93895.34;4986592;28;7321;-62
2022/06/30 03:51:20;;;;;;;;;;;;;;;28.79;42.34;93898.13;5015743;28;7001;-62
2022/06/30 03:53:50;;;;;;;;;;;;;;;28.78;41.99;93899.38;5032359;28;7722;-62
2022/06/30 03:56:16;;;;;;;;;;;;;;;28.78;42.36;93902.16;5023666;28;7067;-62
2022/06/30 03:58:42;;;;;;;;;;;;;;;28.76;42.10;93899.19;5037143;28;8809;-62
2022/06/30 04:01:09;;;;;;;;;;;;;;;28.77;42.38;93899.94;5021922;28;7184;-62
2022/06/30 04:03:43;;;;;;;;;;;;;;;28.76;42.47;93893.66;5026627;28;7306;-62
2022/06/30 04:06:11;;;;;;;;;;;;;;;28.76;41.95;93896.41;5030936;28;7232;-62
2022/06/30 04:08:40;;;;;;;;;;;;;;;28.74;42.23;93893.47;5025790;28;7185;-62
2022/06/30 04:11:08;;;;;;;;;;;;;;;28.74;42.42;93893.47;5015215;28;7303;-62
2022/06/30 04:13:36;;;;;;;;;;;;;;;28.76;42.00;93890.13;5015529;28;6963;-62
2022/06/30 04:16:22;;;;;;;;;;;;;;;28.76;42.01;93885.34;5018107;28;7078;-62
2022/06/30 04:18:57;;;;;;;;;;;;;;;28.74;42.32;93876.84;5023750;28;7111;-62
2022/06/30 04:21:23;;;;;;;;;;;;;;;28.77;41.93;93872.25;5030851;28;7092;-62
2022/06/30 04:23:55;;;;;;;;;;;;;;;28.72;42.24;93862.81;5024940;28;7326;-61
2022/06/30 04:26:22;;;;;;;;;;;;;;;28.74;42.53;93865.78;5036643;28;9134;-62
2022/06/30 04:28:57;;;;;;;;;;;;;;;28.72;41.95;93878.69;5025672;28;7042;-61
2022/06/30 04:34:16;;;;;;;;;;;;;;;28.73;41.82;93869.09;5020107;28;7514;-62
2022/06/30 04:36:41;;;;;;;;;;;;;;;28.72;42.18;93873.88;5012506;28;6985;-61
2022/06/30 04:39:07;;;;;;;;;;;;;;;28.73;41.82;93880.16;5017311;28;7193;-62
2022/06/30 04:41:33;;;;;;;;;;;;;;;28.70;42.22;93876.47;5025388;28;7367;-62
2022/06/30 04:44:02;;;;;;;;;;;;;;;28.70;42.48;93878.47;5025035;28;7211;-62
2022/06/30 04:46:36;;;;;;;;;;;;;;;28.70;42.21;93878.47;5020026;28;7049;-62
2022/06/30 04:49:12;;;;;;;;;;;;;;;28.69;42.48;93883.25;5016300;28;9060;-62
2022/06/30 04:51:45;;;;;;;;;;;;;;;28.67;42.24;93883.06;5026557;28;7234;-62
2022/06/30 04:54:11;;;;;;;;;;;;;;;28.68;42.27;93884.56;5016761;28;7901;-62
2022/06/30 04:56:37;;;;;;;;;;;;;;;28.64;42.66;93878.63;5019769;28;8929;-62
2022/06/30 04:59:05;;;;;;;;;;;;;;;28.65;42.33;93874.56;5024483;28;6864;-61
2022/06/30 05:01:33;;;;;;;;;;;;;;;28.67;42.08;93872.00;5019967;28;8831;-62
2022/06/30 05:04:10;;;;;;;;;;;;;;;28.66;42.23;93865.00;5021065;28;7086;-62
2022/06/30 05:06:38;;;;;;;;;;;;;;;28.67;41.98;93860.94;5014068;28;7066;-62
2022/06/30 05:09:09;;;;;;;;;;;;;;;28.68;42.27;93858.91;5038594;28;9544;-62
2022/06/30 05:11:36;;;;;;;;;;;;;;;28.68;42.36;93859.66;5019591;28;7027;-62
2022/06/30 05:14:10;;;;;;;;;;;;;;;28.65;42.14;93855.19;5019756;28;11362;-62
2022/06/30 05:16:37;;;;;;;;;;;;;;;28.66;42.44;93851.16;5023242;28;7261;-61
2022/06/30 05:19:03;;;;;;;;;;;;;;;28.62;42.27;93852.78;5024829;28;9129;-62
2022/06/30 05:21:29;;;;;;;;;;;;;;;28.58;42.68;93857.94;5021563;28;6991;-62
2022/06/30 05:26:40;;;;;;;;;;;;;;;28.57;42.78;93846.13;5012871;28;7265;-62
2022/06/30 05:29:06;;;;;;;;;;;;;;;28.54;43.17;93840.88;5022579;28;9030;-61
2022/06/30 05:31:31;;;;;;;;;;;;;;;28.56;42.71;93844.59;5014438;28;7122;-61
2022/06/30 05:34:04;;;;;;;;;;;;;;;28.55;42.70;93843.13;5023725;28;9409;-61
2022/06/30 05:36:37;;;;;;;;;;;;;;;28.54;42.66;93849.94;5029980;28;9134;-61
2022/06/30 05:39:03;;;;;;;;;;;;;;;28.55;44.43;93847.91;5015019;28;7040;-63
2022/06/30 05:41:29;;;;;;;;;;;;;;;28.57;43.53;93839.81;5025410;28;7573;-62
2022/06/30 05:43:56;;;;;;;;;;;;;;;28.56;43.54;93843.88;5027074;28;9305;-62
2022/06/30 05:46:31;;;;;;;;;;;;;;;28.55;42.88;93840.34;5025165;28;7222;-62
2022/06/30 05:48:57;;;;;;;;;;;;;;;28.54;43.09;93838.88;5018074;28;9402;-61
2022/06/30 05:51:30;;;;;;;;;;;;;;;28.54;43.25;93838.13;5016521;28;7294;-61
2022/06/30 05:54:00;;;;;;;;;;;;;;;28.56;43.30;93844.59;5033323;28;6936;-62
2022/06/30 05:56:26;;;;;;;;;;;;;;;28.58;43.70;93838.56;5021437;28;8747;-61
2022/06/30 05:58:52;;;;;;;;;;;;;;;28.59;43.68;93840.03;5014608;28;9093;-63
2022/06/30 06:01:20;;;;;;;;;;;;;;;28.59;44.21;93837.25;5013581;28;7383;-62
2022/06/30 06:04:07;;;;;;;;;;;;;;;28.57;44.56;93840.59;5020235;28;8719;-62
2022/06/30 06:06:43;;;;;;;;;;;;;;;28.58;44.49;93844.09;5016868;28;7557;-62
2022/06/30 06:09:14;;;;;;;;;;;;;;;28.57;44.52;93840.59;5023592;28;8779;-62
2022/06/30 06:11:47;;;;;;;;;;;;;;;28.58;44.49;93842.06;5028356;28;8240;-62
2022/06/30 06:14:16;;;;;;;;;;;;;;;28.58;44.44;93839.28;5018712;28;7223;-63
2022/06/30 06:17:09;;;;;;;;;;;;;;;28.59;44.62;93835.25;5026940;28;7870;-63
2022/06/30 06:19:51;;;;;;;;;;;;;;;28.60;44.98;93836.00;4989790;28;7082;-63
2022/06/30 06:22:22;;;;;;;;;;;;;;;28.60;44.56;93831.19;4970466;28;7212;-63
2022/06/30 06:24:59;;;;;;;;;;;;;;;28.59;44.44;93824.19;4982463;28;7541;-63
2022/06/30 06:27:27;;;;;;;;;;;;;;;28.60;44.79;93825.63;4990105;28;7476;-63
2022/06/30 06:29:54;;;;;;;;;;;;;;;28.61;44.32;93831.94;4969381;28;8968;-63
2022/06/30 06:32:22;;;;;;;;;;;;;;;28.61;45.41;93829.91;4964404;28;9509;-63
2022/06/30 06:34:49;;;;;;;;;;;;;;;28.62;44.86;93830.66;4987063;28;6986;-63
2022/06/30 06:37:17;;;;;;;;;;;;;;;28.62;44.87;93834.16;4962084;28;7308;-63
2022/06/30 06:39:55;;;;;;;;;;;;;;;28.63;44.62;93832.13;4989672;28;8863;-63
2022/06/30 06:42:36;;;;;;;;;;;;;;;28.64;45.02;93828.81;4968179;28;8208;-63
2022/06/30 06:45:04;;;;;;;;;;;;;;;28.65;44.94;93827.53;4969114;28;9530;-63
2022/06/30 06:47:45;;;;;;;;;;;;;;;28.66;44.97;93825.50;4988753;28;7321;-63
2022/06/30 06:50:13;;;;;;;;;;;;;;;28.66;44.62;93826.25;4969842;28;7282;-63
2022/06/30 06:52:49;;;;;;;;;;;;;;;28.66;44.71;93823.50;4973373;28;9487;-63
2022/06/30 06:55:17;;;;;;;;;;;;;;;28.67;44.45;93821.44;4956832;28;7272;-63
2022/06/30 06:57:43;;;;;;;;;;;;;;;28.66;44.46;93826.25;5019108;28;8041;-63
2022/06/30 07:00:13;;;;;;;;;;;;;;;28.67;44.22;93832.50;5027317;28;7243;-63
2022/06/30 07:02:52;;;;;;;;;;;;;;;28.66;44.46;93826.25;5017690;28;7243;-63
2022/06/30 07:05:20;;;;;;;;;;;;;;;28.66;44.21;93831.78;5010153;28;6991;-63
2022/06/30 07:07:58;;;;;;;;;;;;;;;28.67;44.11;93822.19;5009841;28;9093;-63
2022/06/30 07:10:28;;;;;;;;;;;;;;;28.67;44.50;93833.25;5025228;28;7213;-63
2022/06/30 07:12:54;;;;;;;;;;;;;;;28.67;43.70;93826.97;5032633;28;7249;-63
2022/06/30 07:15:24;;;;;;;;;;;;;;;28.69;44.55;93827.91;5025921;28;9097;-62
2022/06/30 07:17:53;;;;;;;;;;;;;;;28.70;44.49;93836.97;5013807;28;7122;-63
2022/06/30 07:20:19;;;;;;;;;;;;;;;28.74;44.34;93832.56;5022963;28;7230;-63
2022/06/30 07:22:45;;;;;;;;;;;;;;;28.77;44.52;93841.81;5013157;28;7310;-64
2022/06/30 07:25:11;;;;;;;;;;;;;;;28.76;44.25;93830.00;5016069;28;7251;-63
2022/06/30 07:27:44;;;;;;;;;;;;;;;28.76;44.07;93830.00;5019977;28;7867;-63
2022/06/30 07:30:15;;;;;;;;;;;;;;;28.72;44.29;93829.59;5037646;28;7074;-63
2022/06/30 07:32:44;;;;;;;;;;;;;;;28.75;44.37;93834.03;5022441;28;7261;-63
2022/06/30 07:35:10;;;;;;;;;;;;;;;28.76;44.77;93823.72;5024897;28;9103;-63
2022/06/30 07:37:46;;;;;;;;;;;;;;;28.76;44.38;93824.47;5025675;28;9147;-63
2022/06/30 07:40:17;;;;;;;;;;;;;;;28.78;43.98;93827.41;5018937;28;9372;-62
2022/06/30 07:42:44;;;;;;;;;;;;;;;28.76;44.17;93832.75;5028513;28;7422;-63
2022/06/30 07:45:11;;;;;;;;;;;;;;;28.77;44.48;93830.75;5012859;28;7021;-63
2022/06/30 07:47:43;;;;;;;;;;;;;;;28.79;43.45;93837.22;5028896;28;9350;-63
2022/06/30 07:50:09;;;;;;;;;;;;;;;28.78;42.63;93830.19;5024045;28;9460;-63
2022/06/30 07:52:36;;;;;;;;;;;;;;;28.79;43.46;93834.44;5025564;28;7959;-62
2022/06/30 07:55:03;;;;;;;;;;;;;;;28.79;43.36;93830.94;5016975;28;9818;-63
2022/06/30 07:57:29;;;;;;;;;;;;;;;28.78;43.36;93830.19;5017010;28;7207;-63
2022/06/30 07:59:56;;;;;;;;;;;;;;;28.77;42.89;93823.19;5022396;28;7268;-62
2022/06/30 08:02:24;;;;;;;;;;;;;;;28.78;42.85;93818.38;5039149;28;7084;-62
2022/06/30 08:04:53;;;;;;;;;;;;;;;28.79;43.19;93817.09;5013130;28;7123;-62
2022/06/30 08:07:25;;;;;;;;;;;;;;;28.77;43.44;93814.13;5027445;28;8017;-62
2022/06/30 08:10:29;;;;;;;;;;;;;;;28.78;43.03;93805.28;5014727;28;7207;-62
2022/06/30 08:13:08;;;;;;;;;;;;;;;28.76;43.36;93802.31;4975780;28;6997;-62
2022/06/30 08:15:44;;;;;;;;;;;;;;;28.76;43.35;93802.31;4971770;28;7255;-62
2022/06/30 08:18:25;;;;;;;;;;;;;;;28.77;43.12;93794.75;4974265;28;7134;-63
2022/06/30 08:20:54;;;;;;;;;;;;;;;28.77;43.14;93798.28;4975769;28;7342;-62
2022/06/30 08:23:23;;;;;;;;;;;;;;;28.77;42.66;93798.28;4992804;28;7195;-62
2022/06/30 08:26:20;;;;;;;;;;;;;;;28.78;42.80;93796.97;4975790;28;7367;-63
2022/06/30 08:28:59;;;;;;;;;;;;;;;28.77;42.73;93792.00;4928432;29;7531;-62
2022/06/30 08:31:34;;;;;;;;;;;;;;;28.79;42.87;93800.50;4932798;29;6986;-62
2022/06/30 08:34:01;;;;;;;;;;;;;;;28.80;43.19;93804.72;4930030;29;6994;-63
2022/06/30 08:37:00;;;;;;;;;;;;;;;28.79;42.15;93798.47;4930154;29;7038;-62
2022/06/30 08:42:50;;;;;;;;;;;;;;;28.76;43.21;93796.78;4874932;29;9102;-62
2022/06/30 08:45:17;;;;;;;;;;;;;;;28.75;43.52;93800.09;4871230;29;8903;-62
2022/06/30 08:47:51;;;;;;;;;;;;;;;28.75;42.76;93805.63;4892934;29;9045;-62
2022/06/30 08:50:20;;;;;;;;;;;;;;;28.74;42.80;93804.88;4890366;29;8739;-62
2022/06/30 08:53:03;;;;;;;;;;;;;;;28.78;42.89;93808.03;4892380;29;6998;-62
2022/06/30 08:55:34;;;;;;;;;;;;;;;28.74;42.64;93802.13;4894422;29;7175;-62
2022/06/30 08:58:05;;;;;;;;;;;;;;;28.78;42.68;93804.53;4868868;29;7264;-62
2022/06/30 09:00:42;;;;;;;;;;;;;;;28.79;42.59;93798.47;4867735;29;7224;-63
2022/06/30 09:03:08;;;;;;;;;;;;;;;28.81;42.12;93806.22;4893073;29;7188;-62
2022/06/30 09:05:44;;;;;;;;;;;;;;;28.80;42.11;93805.47;4896623;29;7230;-62
2022/06/30 09:08:21;;;;;;;;;;;;;;;28.82;42.41;93799.38;4925335;29;7062;-62
2022/06/30 09:10:52;;;;;;;;;;;;;;;28.84;41.86;93799.59;4923248;29;9033;-63
2022/06/30 09:13:23;;;;;;;;;;;;;;;28.83;42.09;93795.34;4926228;29;7240;-63
2022/06/30 09:16:04;;;;;;;;;;;;;;;28.87;42.49;93801.25;4995824;28;7322;-62
2022/06/30 09:18:42;;;;;;;;;;;;;;;28.90;42.99;93794.63;5015404;28;9507;-62
2022/06/30 09:21:15;;;;;;;;;;;;;;;28.92;43.20;93800.38;5018383;28;7427;-63
2022/06/30 09:23:46;;;;;;;;;;;;;;;28.92;42.75;93798.34;5043447;28;6999;-62
2022/06/30 09:26:20;;;;;;;;;;;;;;;28.93;42.67;93793.53;5020997;28;7184;-62
2022/06/30 09:28:57;;;;;;;;;;;;;;;28.94;42.30;93789.47;5021107;28;9494;-62
2022/06/30 09:31:34;;;;;;;;;;;;;;;28.97;42.74;93793.94;5023625;28;9040;-62
2022/06/30 09:34:21;;;;;;;;;;;;;;;28.98;42.30;93796.16;5022046;28;6858;-63
2022/06/30 09:37:26;;;;;;;;;;;;;;;29.02;42.91;93796.53;5014690;28;7289;-62
2022/06/30 09:40:06;;;;;;;;;;;;;;;29.06;43.20;93802.44;4964378;28;7604;-62
2022/06/30 09:42:45;;;;;;;;;;;;;;;29.08;42.28;93801.88;4969250;28;7119;-63
2022/06/30 09:45:14;;;;;;;;;;;;;;;29.08;42.55;93807.44;4968211;28;8236;-63
2022/06/30 09:47:56;;;;;;;;;;;;;;;29.08;42.52;93804.66;4965695;28;8724;-63
2022/06/30 09:50:29;;;;;;;;;;;;;;;29.10;43.06;93804.88;4965748;28;7191;-63
2022/06/30 09:53:11;;;;;;;;;;;;;;;29.13;42.41;93808.56;4963069;28;7286;-62
2022/06/30 09:55:45;;;;;;;;;;;;;;;29.10;42.89;93811.13;4941367;28;7371;-62
2022/06/30 09:58:14;;;;;;;;;;;;;;;29.13;43.00;93809.31;4961596;28;9536;-62
2022/06/30 10:00:46;;;;;;;;;;;;;;;29.17;43.00;93803.47;4965249;28;7401;-62
2022/06/30 10:03:13;;;;;;;;;;;;;;;29.18;42.45;93800.13;4952355;28;7100;-62
2022/06/30 10:06:18;;;;;;;;;;;;;;;29.21;42.92;93803.84;4964760;28;7349;-62
2022/06/30 10:09:03;;;;;;;;;;;;;;;29.21;43.19;93795.53;4947462;28;7240;-62
2022/06/30 10:11:50;;;;;;;;;;;;;;;29.20;42.34;93794.78;4942837;28;9436;-62
2022/06/30 10:14:20;;;;;;;;;;;;;;;29.18;43.03;93788.31;4962298;28;7409;-62
2022/06/30 10:16:47;;;;;;;;;;;;;;;29.14;43.33;93788.63;4947273;28;7461;-62
2022/06/30 10:19:13;;;;;;;;;;;;;;;29.13;43.30;93787.16;4959502;28;7099;-62
2022/06/30 10:21:46;;;;;;;;;;;;;;;29.15;43.55;93792.88;4972921;28;7063;-62
2022/06/30 10:24:20;;;;;;;;;;;;;;;29.13;43.32;93791.94;4971160;28;7020;-63
2022/06/30 10:29:51;;;;;;;;;;;;;;;29.08;43.30;93805.41;4985147;28;7264;-62
2022/06/30 10:32:53;;;;;;;;;;;;;;;29.07;42.86;93801.16;4978156;28;7048;-63
2022/06/30 10:35:39;;;;;;;;;;;;;;;29.03;43.20;93803.56;4962340;28;8383;-62
2022/06/30 10:38:31;;;;;;;;;;;;;;;29.03;43.08;93809.09;4966014;28;7066;-62
2022/06/30 10:41:07;;;;;;;;;;;;;;;29.04;43.27;93813.34;4972094;28;7588;-63
2022/06/30 10:43:34;;;;;;;;;;;;;;;29.01;43.31;93825.50;4972872;28;6991;-63
2022/06/30 10:46:03;;;;;;;;;;;;;;;29.01;43.43;93831.03;5014400;28;8777;-62
2022/06/30 10:48:53;;;;;;;;;;;;;;;29.00;43.40;93840.63;5019361;28;9230;-62
2022/06/30 10:51:21;;;;;;;;;;;;;;;28.97;43.57;93844.50;5011190;28;9140;-62
2022/06/30 10:53:57;;;;;;;;;;;;;;;28.98;43.91;93850.78;5010076;28;9524;-62
2022/06/30 10:56:49;;;;;;;;;;;;;;;28.95;43.29;93849.09;5010453;28;7250;-63
2022/06/30 10:59:17;;;;;;;;;;;;;;;28.96;43.53;93850.59;5013388;28;9106;-63
2022/06/30 11:02:11;;;;;;;;;;;;;;;28.91;43.71;93852.22;5026198;28;9140;-63
2022/06/30 11:04:49;;;;;;;;;;;;;;;28.88;44.46;93860.88;5014120;28;7209;-63
2022/06/30 11:07:24;;;;;;;;;;;;;;;28.89;43.94;93859.59;5020011;28;9771;-63
2022/06/30 11:10:00;;;;;;;;;;;;;;;28.93;44.03;93854.44;5010824;28;7120;-63
2022/06/30 11:12:40;;;;;;;;;;;;;;;28.94;44.36;93844.84;5015892;28;9085;-63
2022/06/30 11:15:14;;;;;;;;;;;;;;;28.95;44.05;93833.22;5014777;28;6984;-63
2022/06/30 11:17:40;;;;;;;;;;;;;;;28.96;43.97;93820.88;5018237;28;7581;-63
2022/06/30 11:20:13;;;;;;;;;;;;;;;28.96;43.81;93812.56;5015616;28;7209;-62
2022/06/30 11:22:46;;;;;;;;;;;;;;;28.99;43.61;93803.16;5033049;28;8458;-62
2022/06/30 11:28:14;;;;;;;;;;;;;;;29.02;43.84;93779.16;5018392;28;7398;-63
2022/06/30 11:30:58;;;;;;;;;;;;;;;29.02;43.77;93781.94;5025233;28;7312;-63
2022/06/30 11:33:50;;;;;;;;;;;;;;;29.03;44.17;93781.41;5013306;28;7357;-63
2022/06/30 11:36:17;;;;;;;;;;;;;;;29.05;44.66;93784.38;5027911;28;7084;-63
2022/06/30 11:39:11;;;;;;;;;;;;;;;29.07;44.65;93806.72;5024727;28;9149;-62
2022/06/30 11:41:55;;;;;;;;;;;;;;;29.04;44.52;93818.13;5020496;28;9222;-62
2022/06/30 11:44:41;;;;;;;;;;;;;;;29.06;44.32;93846.00;5026611;28;7868;-62
2022/06/30 11:47:17;;;;;;;;;;;;;;;29.05;45.16;93850.81;5014933;28;7585;-63
2022/06/30 11:49:50;;;;;;;;;;;;;;;29.05;45.19;93859.13;5028228;28;6937;-63
2022/06/30 11:52:37;;;;;;;;;;;;;;;29.10;45.31;93849.91;5028986;28;8133;-63
2022/06/30 11:55:17;;;;;;;;;;;;;;;29.14;44.58;93832.22;5017952;28;7008;-63
2022/06/30 11:57:49;;;;;;;;;;;;;;;29.18;45.72;93829.84;5026958;28;7233;-63
2022/06/30 12:00:27;;;;;;;;;;;;;;;29.17;44.71;93822.84;5017507;28;7216;-62
2022/06/30 12:03:02;;;;;;;;;;;;;;;29.20;44.71;93816.19;5014201;28;7248;-63
2022/06/30 12:05:39;;;;;;;;;;;;;;;29.22;44.16;93819.16;5011696;28;7249;-63
2022/06/30 12:08:12;;;;;;;;;;;;;;;29.21;44.88;93818.41;5015094;28;7305;-63
2022/06/30 12:10:40;;;;;;;;;;;;;;;29.22;44.63;93816.38;5022886;28;7060;-63
2022/06/30 12:13:10;;;;;;;;;;;;;;;29.19;44.74;93820.25;5033332;28;9228;-63
2022/06/30 12:15:41;;;;;;;;;;;;;;;29.22;44.54;93819.16;5015578;28;7304;-63
2022/06/30 12:18:08;;;;;;;;;;;;;;;29.23;44.06;93826.19;5019583;28;9388;-63
2022/06/30 12:20:45;;;;;;;;;;;;;;;29.21;44.16;93823.94;5022771;28;6975;-63
2022/06/30 12:23:12;;;;;;;;;;;;;;;29.22;44.29;93835.78;5025398;28;7236;-63
2022/06/30 12:25:46;;;;;;;;;;;;;;;29.21;44.09;93843.31;5031512;28;7142;-62
2022/06/30 12:28:24;;;;;;;;;;;;;;;29.22;44.05;93841.31;5029977;28;7325;-62
2022/06/30 12:31:01;;;;;;;;;;;;;;;29.23;43.58;93842.81;5028218;28;6877;-62
2022/06/30 12:33:46;;;;;;;;;;;;;;;29.22;43.33;93838.53;5035136;28;7245;-62
2022/06/30 12:36:18;;;;;;;;;;;;;;;29.23;43.67;93842.81;5017336;28;7270;-62
2022/06/30 12:38:45;;;;;;;;;;;;;;;29.20;43.45;93841.88;5016022;28;8152;-62
2022/06/30 12:41:12;;;;;;;;;;;;;;;29.20;43.65;93843.88;5013657;28;7259;-62
2022/06/30 12:43:47;;;;;;;;;;;;;;;29.19;43.11;93850.72;5014589;28;7079;-62
2022/06/30 12:46:18;;;;;;;;;;;;;;;29.20;43.62;93849.44;5015746;28;7422;-62
2022/06/30 12:48:54;;;;;;;;;;;;;;;29.21;43.66;93853.69;5022475;28;6993;-62
2022/06/30 12:51:32;;;;;;;;;;;;;;;29.23;43.34;93848.34;5028326;28;6991;-62
2022/06/30 12:54:13;;;;;;;;;;;;;;;29.20;43.94;93850.16;5019497;28;7242;-62
2022/06/30 12:56:41;;;;;;;;;;;;;;;29.22;43.19;93846.84;5015515;28;7115;-62
2022/06/30 12:59:13;;;;;;;;;;;;;;;29.20;44.11;93844.63;5010522;28;7497;-62
2022/06/30 13:01:42;;;;;;;;;;;;;;;29.18;44.16;93819.53;5021923;28;6993;-62
2022/06/30 13:04:10;;;;;;;;;;;;;;;29.19;45.24;93828.56;5020257;28;7297;-62
2022/06/30 13:06:54;;;;;;;;;;;;;;;29.18;45.00;93841.66;5022527;28;9090;-63
2022/06/30 13:09:36;;;;;;;;;;;;;;;29.19;44.99;93834.13;5028465;28;8815;-63
2022/06/30 13:12:17;;;;;;;;;;;;;;;29.20;44.85;93818.97;5024769;28;7657;-63
2022/06/30 13:14:45;;;;;;;;;;;;;;;29.21;45.04;93823.22;5029420;28;7763;-62
2022/06/30 13:17:12;;;;;;;;;;;;;;;29.20;45.13;93822.47;5017919;28;8275;-62
2022/06/30 13:19:51;;;;;;;;;;;;;;;29.21;45.02;93809.38;5028081;28;7072;-62
2022/06/30 13:22:26;;;;;;;;;;;;;;;29.24;44.97;93803.47;5024497;28;7339;-63
2022/06/30 13:24:52;;;;;;;;;;;;;;;29.25;44.58;93812.53;5024833;28;7513;-62
2022/06/30 13:27:25;;;;;;;;;;;;;;;29.28;44.24;93806.63;5021094;28;7117;-63
2022/06/30 13:29:59;;;;;;;;;;;;;;;29.29;44.34;93796.28;5018383;28;6998;-63
2022/06/30 13:32:25;;;;;;;;;;;;;;;29.27;44.05;93805.16;5027622;28;7219;-63
2022/06/30 13:34:54;;;;;;;;;;;;;;;29.26;44.08;93798.13;5012206;28;6988;-63
2022/06/30 13:37:24;;;;;;;;;;;;;;;29.27;43.90;93809.94;5021186;28;8632;-63
2022/06/30 13:39:50;;;;;;;;;;;;;;;29.29;44.16;93799.06;5014674;28;7227;-63
2022/06/30 13:42:21;;;;;;;;;;;;;;;29.29;43.24;93802.56;5017065;28;7205;-62
2022/06/30 13:44:54;;;;;;;;;;;;;;;29.31;43.04;93799.25;5017751;28;8975;-63
2022/06/30 13:47:26;;;;;;;;;;;;;;;29.34;42.66;93796.09;5024156;28;7077;-62